Página principal
METAR-TAF:

METAR-TAF

Aeroportos :

Aeroporto Internacional Diori Hamani

Niamey, Níger

latitude: 13-29N, longitude: 002-10E, altura: 223 m

Observação actual do tempo

O boletim foi feito há 28 minutos, às 22:00 UTC
Vento 3 kt de es-nordeste
Temperatura 29°C
Humidade 19%
Pressão 1011 hPa
Visibilidade 10 km ou mais
sem nuvens abaixo de 1500 metros e sem cumulonimbus

METAR: DRRN 152200Z 07003KT CAVOK 29/03 Q1011 NOSIG

Hora: 23:28 (22:28 UTC)

Previsão

O boletim foi feito há 5 horas e 28 minutos, às 17:00 UTC
Previsão válida de 15 às 18 UTC a 16 às 24 UTC
Vento 10 kt de este
Visibilidade: 8000 m
Temporariamente
de 15 às 18 UTC a 15 às 20 UTC
Visibilidade: 4000 m
poeira extensa
Temporariamente
de 16 às 06 UTC a 16 às 09 UTC
Visibilidade: 4000 m
poeira extensa

TAF: DRRN 151700Z 1518/1624 10010KT 8000 NSC TEMPO 1518/1520 4000 DU TEMPO 1606/1609 4000 DU

Observações e previsões do tempo de mais de 4000 aeroportos (mensagens METAR e TAF).

As estações disponíveis são os pontos amarelos e vermelhos sobre o mapa.

Mova o rato sobre o mapa para ver o nome da estação.

Depois clique no ponto para visualizar as observações e previsões meteorológicas.

Para alterar o mapa : clique nos botões verdes com uma cruz preta para aumentar o zoom; no botão verde com uma pitada de zoom; ou nas setas verdes para mapas adjacentes.


METAR-TAF: